createdAt,value
2023-03-15T00:00:55.999Z,1
2023-03-15T00:02:12.293Z,0.8
2023-03-15T00:03:28.598Z,0.8
2023-03-15T00:04:44.890Z,0.8
2023-03-15T00:06:01.172Z,1.6
2023-03-15T00:07:16.498Z,0.6
2023-03-15T00:08:32.787Z,1.4
2023-03-15T00:09:49.077Z,0.7
2023-03-15T00:11:05.371Z,0.8
2023-03-15T00:12:21.674Z,0.8
2023-03-15T00:13:37.963Z,0.9
2023-03-15T00:14:54.270Z,1.5
2023-03-15T00:16:10.559Z,1
2023-03-15T00:17:26.850Z,0.7
2023-03-15T00:18:43.133Z,0.6
2023-03-15T00:19:59.426Z,0.8
2023-03-15T00:21:15.723Z,0.8
2023-03-15T00:22:32.017Z,0.7
2023-03-15T00:23:47.332Z,0.6
2023-03-15T00:25:03.625Z,0.8
2023-03-15T00:26:19.919Z,1
2023-03-15T00:27:36.216Z,0.7
2023-03-15T00:28:52.496Z,0.7
2023-03-15T00:30:08.807Z,0.5
2023-03-15T00:31:25.097Z,0.6
2023-03-15T00:32:41.389Z,0.8
2023-03-15T00:33:57.695Z,0.6
2023-03-15T00:35:13.976Z,1.3
2023-03-15T00:36:30.266Z,0.7
2023-03-15T00:37:46.576Z,0.5
2023-03-15T00:39:02.850Z,0.7
2023-03-15T00:40:18.167Z,1
2023-03-15T00:41:34.465Z,0.7
2023-03-15T00:42:50.754Z,1
2023-03-15T00:44:07.063Z,1.1
2023-03-15T00:45:23.343Z,0.9
2023-03-15T00:46:39.644Z,0.7
2023-03-15T00:47:55.939Z,0.7
2023-03-15T00:49:12.218Z,0.6
2023-03-15T00:50:28.521Z,0.9
2023-03-15T00:51:44.817Z,0.6
2023-03-15T00:53:01.109Z,0.7
2023-03-15T00:54:17.397Z,0.8
2023-03-15T00:55:33.694Z,0.8
2023-03-15T00:56:49.004Z,0.5
2023-03-15T00:58:05.305Z,0.6
2023-03-15T00:59:21.591Z,0.7
2023-03-15T01:00:37.902Z,0.6
2023-03-15T01:01:54.197Z,1.3
2023-03-15T01:03:10.477Z,0.6
2023-03-15T01:04:26.780Z,0.5
2023-03-15T01:05:43.076Z,0.7
2023-03-15T01:06:59.359Z,0.8
2023-03-15T01:08:15.663Z,1
2023-03-15T01:09:31.962Z,0.9
2023-03-15T01:10:48.240Z,1.2
2023-03-15T01:12:04.539Z,0.9
2023-03-15T01:13:19.849Z,0.6
2023-03-15T01:14:36.150Z,0.8
2023-03-15T01:15:52.435Z,0.9
2023-03-15T01:17:08.734Z,0.7
2023-03-15T01:18:25.023Z,0.8
2023-03-15T01:19:41.314Z,0.7
2023-03-15T01:20:57.623Z,0.7
2023-03-15T01:22:13.901Z,0.6
2023-03-15T01:23:30.196Z,0.7
2023-03-15T01:24:46.497Z,0.7
2023-03-15T01:26:02.800Z,0.7
2023-03-15T01:27:19.073Z,1.1
2023-03-15T01:28:35.389Z,0.6
2023-03-15T01:29:50.680Z,0.6
2023-03-15T01:31:06.988Z,0.6
2023-03-15T01:32:23.273Z,0.6
2023-03-15T01:33:39.566Z,0.6
2023-03-15T01:34:55.853Z,0.5
2023-03-15T01:36:12.163Z,0.5
2023-03-15T01:37:28.443Z,0.6
2023-03-15T01:38:44.755Z,0.5
2023-03-15T01:40:01.036Z,1.1
2023-03-15T01:41:17.349Z,0.5
2023-03-15T01:42:33.621Z,0.6
2023-03-15T01:43:49.930Z,0.5
2023-03-15T01:45:06.212Z,0.7
2023-03-15T01:46:22.500Z,0.6
2023-03-15T01:47:37.825Z,1.1
2023-03-15T01:48:54.126Z,0.5
2023-03-15T01:50:10.417Z,0.8
2023-03-15T01:51:26.693Z,0.7
2023-03-15T01:52:42.990Z,0.6
2023-03-15T01:53:59.285Z,0.5
2023-03-15T01:55:15.591Z,0.6
2023-03-15T01:56:31.893Z,0.6
2023-03-15T01:57:48.166Z,0.5
2023-03-15T01:59:04.472Z,0.6
2023-03-15T02:00:20.755Z,0.6
2023-03-15T02:01:37.054Z,0.5
2023-03-15T02:02:53.359Z,1.5
2023-03-15T02:04:09.641Z,0.6
2023-03-15T02:05:24.959Z,0.7
2023-03-15T02:06:41.245Z,0.6
2023-03-15T02:07:57.556Z,1.2
2023-03-15T02:09:13.836Z,0.7
2023-03-15T02:10:30.127Z,0.8
2023-03-15T02:11:46.423Z,0.6
2023-03-15T02:13:02.736Z,0.7
2023-03-15T02:14:19.017Z,0.6
2023-03-15T02:15:35.308Z,0.8
2023-03-15T02:16:51.617Z,0.6
2023-03-15T02:18:07.892Z,0.6
2023-03-15T02:19:24.207Z,0.9
2023-03-15T02:20:40.492Z,0.6
2023-03-15T02:21:56.778Z,0.5
2023-03-15T02:23:12.090Z,0.6
2023-03-15T02:24:28.388Z,0.8
2023-03-15T02:25:44.678Z,0.6
2023-03-15T02:27:00.966Z,0.9
2023-03-15T02:28:17.274Z,0.7
2023-03-15T02:29:33.559Z,0.5
2023-03-15T02:30:49.866Z,0.8
2023-03-15T02:32:06.152Z,0.5
2023-03-15T02:33:22.447Z,0.6
2023-03-15T02:34:38.737Z,0.5
2023-03-15T02:35:55.029Z,0.7
2023-03-15T02:37:11.335Z,0.7
2023-03-15T02:38:27.624Z,0.6
2023-03-15T02:39:43.918Z,0.6
2023-03-15T02:40:59.228Z,1.1
2023-03-15T02:42:15.529Z,0.5
2023-03-15T02:43:31.815Z,0.6
2023-03-15T02:44:48.123Z,0.7
2023-03-15T02:46:04.394Z,0.7
2023-03-15T02:47:20.700Z,0.6
2023-03-15T02:48:37.002Z,0.6
2023-03-15T02:49:53.279Z,0.6
2023-03-15T02:51:09.583Z,0.6
2023-03-15T02:52:25.881Z,0.5
2023-03-15T02:53:42.187Z,0.5
2023-03-15T02:54:58.465Z,0.7
2023-03-15T02:56:13.783Z,0.8
2023-03-15T02:57:30.080Z,0.8
2023-03-15T02:58:46.359Z,0.9
2023-03-15T03:00:02.669Z,0.6
2023-03-15T03:01:18.956Z,0.5
2023-03-15T03:02:35.258Z,0.9
2023-03-15T03:03:51.548Z,0.6
2023-03-15T03:05:07.000Z,0.7
2023-03-15T03:06:24.144Z,1.2
2023-03-15T03:07:40.439Z,0.8
2023-03-15T03:08:56.716Z,0.6
2023-03-15T03:10:13.000Z,0.6
2023-03-15T03:11:29.314Z,0.7
2023-03-15T03:12:44.631Z,0.6
2023-03-15T03:14:00.919Z,0.8
2023-03-15T03:15:17.223Z,0.6
2023-03-15T03:16:33.511Z,0.5
2023-03-15T03:17:49.800Z,0.6
2023-03-15T03:19:06.092Z,0.7
2023-03-15T03:20:22.386Z,0.7
2023-03-15T03:21:38.701Z,0.8
2023-03-15T03:22:54.986Z,0.6
2023-03-15T03:24:11.260Z,1.1
2023-03-15T03:25:27.578Z,0.9
2023-03-15T03:26:43.863Z,0.6
2023-03-15T03:28:00.142Z,0.6
2023-03-15T03:29:15.465Z,0.8
2023-03-15T03:30:31.767Z,0.6
2023-03-15T03:31:48.070Z,0.7
2023-03-15T03:33:04.349Z,0.6
2023-03-15T03:34:20.647Z,0.7
2023-03-15T03:35:36.941Z,1.3
2023-03-15T03:36:53.231Z,1
2023-03-15T03:38:09.527Z,0.6
2023-03-15T03:39:25.831Z,0.7
2023-03-15T03:40:42.107Z,0.6
2023-03-15T03:41:58.410Z,0.7
2023-03-15T03:43:14.714Z,0.6
2023-03-15T03:44:31.003Z,0.6
2023-03-15T03:45:46.311Z,0.6
2023-03-15T03:47:02.596Z,0.7
2023-03-15T03:48:18.885Z,0.6
2023-03-15T03:49:35.187Z,0.6
2023-03-15T03:50:51.474Z,1.2
2023-03-15T03:52:07.785Z,0.9
2023-03-15T03:53:24.067Z,0.8
2023-03-15T03:54:40.375Z,0.6
2023-03-15T03:55:56.663Z,0.7
2023-03-15T03:57:12.944Z,0.7
2023-03-15T03:58:29.259Z,0.5
2023-03-15T03:59:45.541Z,0.6
2023-03-15T04:01:01.000Z,0.8
2023-03-15T04:02:18.133Z,1
2023-03-15T04:03:33.456Z,0.6
2023-03-15T04:04:49.746Z,1.6
2023-03-15T04:06:06.035Z,0.7
2023-03-15T04:07:22.328Z,0.6
2023-03-15T04:08:38.613Z,0.6
2023-03-15T04:09:54.912Z,0.6
2023-03-15T04:11:11.200Z,0.6
2023-03-15T04:12:27.491Z,0.9
2023-03-15T04:13:43.793Z,0.6
2023-03-15T04:15:00.087Z,0.6
2023-03-15T04:16:16.387Z,0.6
2023-03-15T04:17:32.670Z,0.7
2023-03-15T04:18:48.964Z,0.7
2023-03-15T04:20:05.277Z,0.6
2023-03-15T04:21:20.588Z,0.7
2023-03-15T04:22:36.885Z,0.6
2023-03-15T04:23:53.171Z,0.6
2023-03-15T04:25:09.459Z,0.7
2023-03-15T04:26:25.765Z,0.8
2023-03-15T04:27:42.051Z,0.6
2023-03-15T04:28:58.360Z,0.7
2023-03-15T04:30:14.647Z,0.8
2023-03-15T04:31:30.937Z,0.6
2023-03-15T04:32:47.240Z,0.5
2023-03-15T04:34:03.537Z,0.6
2023-03-15T04:35:19.810Z,1.6
2023-03-15T04:36:36.112Z,0.6
2023-03-15T04:37:52.540Z,0.6
2023-03-15T04:39:08.810Z,0.6
2023-03-15T04:40:25.000Z,0.6
2023-03-15T04:41:41.420Z,0.8
2023-03-15T04:42:57.701Z,1
2023-03-15T04:44:13.987Z,0.6
2023-03-15T04:45:30.298Z,0.6
2023-03-15T04:46:46.578Z,1
2023-03-15T04:48:02.883Z,0.7
2023-03-15T04:49:19.175Z,0.7
2023-03-15T04:50:35.467Z,0.7
2023-03-15T04:51:51.762Z,0.9
2023-03-15T04:53:08.007Z,0.6
2023-03-15T04:54:23.285Z,1.4
2023-03-15T04:55:39.503Z,1.1
2023-03-15T04:56:55.750Z,0.6
2023-03-15T04:58:11.988Z,0.7
2023-03-15T04:59:28.244Z,0.7
2023-03-15T05:00:44.499Z,0.7
2023-03-15T05:02:00.737Z,0.6
2023-03-15T05:03:16.978Z,0.6
2023-03-15T05:04:33.218Z,0.7
2023-03-15T05:05:49.455Z,0.9
2023-03-15T05:07:05.703Z,1.2
2023-03-15T05:08:21.925Z,0.7
2023-03-15T05:09:38.187Z,0.9
2023-03-15T05:10:53.450Z,1
2023-03-15T05:12:09.690Z,0.8
2023-03-15T05:13:25.923Z,0.6
2023-03-15T05:14:42.156Z,0.7
2023-03-15T05:15:58.398Z,0.7
2023-03-15T05:17:14.651Z,0.7
2023-03-15T05:18:30.880Z,1
2023-03-15T05:19:47.108Z,0.7
2023-03-15T05:21:03.348Z,0.8
2023-03-15T05:22:19.607Z,1.1
2023-03-15T05:23:35.843Z,0.9
2023-03-15T05:24:52.080Z,1.3
2023-03-15T05:26:08.327Z,0.5
2023-03-15T05:27:23.572Z,0.6
2023-03-15T05:28:39.811Z,0.9
2023-03-15T05:29:56.053Z,0.6
2023-03-15T05:31:12.309Z,0.7
2023-03-15T05:32:28.537Z,0.7
2023-03-15T05:33:44.781Z,0.9
2023-03-15T05:35:01.014Z,0.6
2023-03-15T05:36:17.258Z,0.6
2023-03-15T05:37:33.508Z,0.6
2023-03-15T05:38:49.735Z,1.2
2023-03-15T05:40:05.975Z,0.6
2023-03-15T05:41:22.206Z,0.5
2023-03-15T05:42:38.445Z,0.7
2023-03-15T05:43:54.702Z,0.6
2023-03-15T05:45:09.958Z,0.8
2023-03-15T05:46:26.198Z,0.7
2023-03-15T05:47:42.436Z,0.8
2023-03-15T05:48:58.681Z,0.7
2023-03-15T05:50:14.922Z,0.9
2023-03-15T05:51:31.144Z,0.7
2023-03-15T05:52:47.399Z,0.7
2023-03-15T05:54:03.640Z,0.7
2023-03-15T05:55:19.884Z,0.9
2023-03-15T05:56:36.116Z,0.7
2023-03-15T05:57:52.357Z,0.7
2023-03-15T05:59:08.603Z,0.9
2023-03-15T06:00:24.835Z,0.6
2023-03-15T06:01:41.070Z,0.7
2023-03-15T06:02:56.334Z,0.9
2023-03-15T06:04:12.578Z,0.8
2023-03-15T06:05:28.823Z,0.5
2023-03-15T06:06:45.075Z,0.6
2023-03-15T06:08:01.312Z,0.5
2023-03-15T06:09:17.556Z,0.6
2023-03-15T06:10:33.786Z,0.7
2023-03-15T06:11:50.018Z,0.7
2023-03-15T06:13:06.257Z,0.6
2023-03-15T06:14:22.503Z,0.5
2023-03-15T06:15:38.730Z,1
2023-03-15T06:16:54.989Z,1.1
2023-03-15T06:18:11.211Z,0.5
2023-03-15T06:19:27.451Z,0.8
2023-03-15T06:20:42.730Z,0.6
2023-03-15T06:21:58.961Z,0.5
2023-03-15T06:23:15.215Z,1
2023-03-15T06:24:31.448Z,0.7
2023-03-15T06:25:47.696Z,1.2
2023-03-15T06:27:03.921Z,0.9
2023-03-15T06:28:20.168Z,0.6
2023-03-15T06:29:36.418Z,0.9
2023-03-15T06:30:52.653Z,0.5
2023-03-15T06:32:08.880Z,0.6
2023-03-15T06:33:25.138Z,0.7
2023-03-15T06:34:41.381Z,0.5
2023-03-15T06:35:57.616Z,0.6
2023-03-15T06:37:13.968Z,0.6
2023-03-15T06:38:30.212Z,0.6
2023-03-15T06:39:46.446Z,0.6
2023-03-15T06:41:02.676Z,1
2023-03-15T06:42:18.936Z,0.7
2023-03-15T06:43:35.186Z,0.8
2023-03-15T06:44:51.409Z,0.6
2023-03-15T06:46:07.647Z,0.5
2023-03-15T06:47:23.892Z,0.5
2023-03-15T06:48:40.129Z,0.5
2023-03-15T06:49:56.372Z,1.1
2023-03-15T06:51:12.613Z,0.6
2023-03-15T06:52:28.856Z,0.6
2023-03-15T06:53:44.102Z,1.2
2023-03-15T06:55:00.351Z,0.5
2023-03-15T06:56:16.592Z,0.7
2023-03-15T06:57:32.816Z,0.6
2023-03-15T06:58:49.073Z,0.6
2023-03-15T07:00:05.294Z,0.8
2023-03-15T07:01:21.555Z,0.6
2023-03-15T07:02:37.793Z,0.9
2023-03-15T07:03:54.031Z,0.6
2023-03-15T07:05:10.269Z,0.7
2023-03-15T07:06:26.512Z,0.6
2023-03-15T07:07:42.759Z,0.6
2023-03-15T07:08:58.990Z,0.6
2023-03-15T07:10:14.262Z,0.6
2023-03-15T07:11:29.519Z,0.6
2023-03-15T07:12:45.745Z,0.6
2023-03-15T07:14:02.007Z,0.5
2023-03-15T07:15:18.234Z,1.2
2023-03-15T07:16:34.476Z,0.6
2023-03-15T07:17:50.715Z,0.7
2023-03-15T07:19:06.953Z,0.6
2023-03-15T07:20:23.198Z,0.6
2023-03-15T07:21:39.417Z,1.1
2023-03-15T07:22:55.672Z,1.3
2023-03-15T07:24:11.901Z,3
2023-03-15T07:25:28.160Z,3.7
2023-03-15T07:26:44.393Z,3
2023-03-15T07:27:59.659Z,3.7
2023-03-15T07:29:15.902Z,3.4
2023-03-15T07:30:32.127Z,3.3
2023-03-15T07:31:48.354Z,2.6
2023-03-15T07:33:04.609Z,3.6
2023-03-15T07:34:20.859Z,2
2023-03-15T07:35:37.072Z,1
2023-03-15T07:36:53.327Z,1
2023-03-15T07:38:09.567Z,1.8
2023-03-15T07:39:25.817Z,1
2023-03-15T07:40:42.059Z,0.7
2023-03-15T07:41:58.295Z,0.8
2023-03-15T07:43:14.524Z,0.7
2023-03-15T07:44:29.780Z,1.5
2023-03-15T07:45:46.036Z,1.2
2023-03-15T07:47:02.264Z,0.8
2023-03-15T07:48:18.504Z,1.6
2023-03-15T07:49:34.738Z,1.4
2023-03-15T07:50:50.974Z,0.9
2023-03-15T07:52:07.239Z,1
2023-03-15T07:53:23.446Z,1.3
2023-03-15T07:54:39.704Z,1.4
2023-03-15T07:55:55.938Z,1.4
2023-03-15T07:57:12.169Z,1.4
2023-03-15T07:58:28.417Z,1
2023-03-15T07:59:44.659Z,1.1
2023-03-15T08:00:59.933Z,1.2
2023-03-15T08:02:16.165Z,1.7
2023-03-15T08:03:32.392Z,1.1
2023-03-15T08:04:48.644Z,0.8
2023-03-15T08:06:04.876Z,0.9
2023-03-15T08:07:21.111Z,1.8
2023-03-15T08:08:37.362Z,0.7
2023-03-15T08:09:53.584Z,1.1
2023-03-15T08:11:09.855Z,1.3
2023-03-15T08:12:26.087Z,0.9
2023-03-15T08:13:42.318Z,0.8
2023-03-15T08:14:58.572Z,1.2
2023-03-15T08:16:14.802Z,1.3
2023-03-15T08:17:31.053Z,0.7
2023-03-15T08:18:46.293Z,0.9
2023-03-15T08:20:02.537Z,1.3
2023-03-15T08:21:18.783Z,1.7
2023-03-15T08:22:35.019Z,0.8
2023-03-15T08:23:51.254Z,1
2023-03-15T08:25:07.499Z,1.2
2023-03-15T08:26:23.731Z,1.3
2023-03-15T08:27:39.984Z,0.9
2023-03-15T08:28:56.219Z,1.2
2023-03-15T08:30:12.470Z,0.9
2023-03-15T08:31:28.692Z,1.1
2023-03-15T08:32:44.941Z,1.5
2023-03-15T08:34:01.162Z,1
2023-03-15T08:35:17.417Z,0.8
2023-03-15T08:36:32.678Z,1.5
2023-03-15T08:37:48.927Z,1.7
2023-03-15T08:39:05.137Z,0.9
2023-03-15T08:40:21.391Z,0.8
2023-03-15T08:41:37.618Z,1.5
2023-03-15T08:42:53.868Z,1.2
2023-03-15T08:44:10.114Z,1.1
2023-03-15T08:45:26.335Z,1
2023-03-15T08:46:42.596Z,0.7
2023-03-15T08:47:58.821Z,1
2023-03-15T08:49:15.061Z,0.9
2023-03-15T08:50:31.320Z,0.7
2023-03-15T08:51:47.536Z,0.6
2023-03-15T08:53:03.797Z,0.6
2023-03-15T08:54:19.039Z,0.8
2023-03-15T08:55:35.301Z,0.6
2023-03-15T08:56:51.531Z,0.9
2023-03-15T08:58:07.768Z,0.6
2023-03-15T08:59:24.011Z,0.7
2023-03-15T09:00:40.246Z,0.7
2023-03-15T09:01:56.487Z,1.2
2023-03-15T09:03:12.728Z,0.9
2023-03-15T09:04:28.977Z,1.3
2023-03-15T09:05:45.221Z,0.8
2023-03-15T09:07:01.438Z,0.6
2023-03-15T09:08:17.694Z,1.2
2023-03-15T09:09:33.930Z,1
2023-03-15T09:10:49.179Z,1.2
2023-03-15T09:12:05.422Z,0.5
2023-03-15T09:13:21.665Z,0.9
2023-03-15T09:14:37.913Z,0.7
2023-03-15T09:15:54.147Z,0.9
2023-03-15T09:17:10.393Z,0.8
2023-03-15T09:18:26.628Z,2.2
2023-03-15T09:19:42.855Z,0.6
2023-03-15T09:20:59.100Z,0.6
2023-03-15T09:22:15.359Z,0.9
2023-03-15T09:23:31.583Z,1
2023-03-15T09:24:47.833Z,0.6
2023-03-15T09:26:04.064Z,0.6
2023-03-15T09:27:19.312Z,1
2023-03-15T09:28:35.565Z,0.8
2023-03-15T09:29:51.800Z,1.3
2023-03-15T09:31:08.034Z,0.5
2023-03-15T09:32:24.263Z,0.5
2023-03-15T09:33:40.534Z,0.6
2023-03-15T09:34:56.746Z,0.9
2023-03-15T09:36:13.005Z,0.8
2023-03-15T09:37:29.251Z,0.9
2023-03-15T09:38:45.474Z,0.6
2023-03-15T09:40:01.732Z,0.5
2023-03-15T09:41:17.959Z,1.2
2023-03-15T09:42:34.194Z,0.5
2023-03-15T09:43:50.456Z,0.7
2023-03-15T09:45:05.683Z,1.6
2023-03-15T09:46:21.947Z,1.3
2023-03-15T09:47:38.157Z,1.4
2023-03-15T09:48:54.427Z,1.1
2023-03-15T09:50:10.638Z,0.6
2023-03-15T09:51:26.905Z,0.9
2023-03-15T09:52:43.135Z,0.6
2023-03-15T09:53:59.370Z,0.9
2023-03-15T09:55:15.623Z,0.7
2023-03-15T09:56:31.862Z,0.8
2023-03-15T09:57:48.091Z,0.9
2023-03-15T09:59:04.343Z,0.5
2023-03-15T10:00:20.569Z,0.6
2023-03-15T10:01:35.833Z,0.6
2023-03-15T10:02:52.070Z,0.5
2023-03-15T10:04:08.313Z,0.5
2023-03-15T10:05:24.545Z,0.5
2023-03-15T10:06:40.786Z,0.6
2023-03-15T10:07:57.022Z,1
2023-03-15T10:09:13.253Z,0.8
2023-03-15T10:10:29.502Z,0.5
2023-03-15T10:11:45.746Z,0.8
2023-03-15T10:13:01.986Z,0.5
2023-03-15T10:14:18.236Z,1
2023-03-15T10:15:34.467Z,0.6
2023-03-15T10:16:50.716Z,0.5
2023-03-15T10:18:05.951Z,0.8
2023-03-15T10:19:22.200Z,0.7
2023-03-15T10:20:38.440Z,0.5
2023-03-15T10:21:54.671Z,0.5
2023-03-15T10:23:10.916Z,0.8
2023-03-15T10:24:27.160Z,0.4
2023-03-15T10:25:43.403Z,0.5
2023-03-15T10:26:59.652Z,0.7
2023-03-15T10:28:15.889Z,0.5
2023-03-15T10:29:32.120Z,0.6
2023-03-15T10:30:48.354Z,0.6
2023-03-15T10:32:04.595Z,0.9
2023-03-15T10:33:20.819Z,0.6
2023-03-15T10:34:36.105Z,1.3
2023-03-15T10:35:52.335Z,0.7
2023-03-15T10:37:08.578Z,0.5
2023-03-15T10:38:24.821Z,0.5
2023-03-15T10:39:41.047Z,0.6
2023-03-15T10:40:57.302Z,0.6
2023-03-15T10:42:13.536Z,0.6
2023-03-15T10:43:29.783Z,0.6
2023-03-15T10:44:46.014Z,0.5
2023-03-15T10:46:02.249Z,0.5
2023-03-15T10:47:18.494Z,0.7
2023-03-15T10:48:34.737Z,0.8
2023-03-15T10:49:50.974Z,0.7
2023-03-15T10:51:06.236Z,1.3
2023-03-15T10:52:22.478Z,0.5
2023-03-15T10:53:38.713Z,0.6
2023-03-15T10:54:54.960Z,0.7
2023-03-15T10:56:11.204Z,0.6
2023-03-15T10:57:27.433Z,0.5
2023-03-15T10:58:43.664Z,0.5
2023-03-15T10:59:59.918Z,0.5
2023-03-15T11:01:16.154Z,0.5
2023-03-15T11:02:32.385Z,0.8
2023-03-15T11:03:48.628Z,0.5
2023-03-15T11:05:04.867Z,0.5
2023-03-15T11:06:21.115Z,0.6
2023-03-15T11:07:36.372Z,0.6
2023-03-15T11:08:52.600Z,0.5
2023-03-15T11:10:08.821Z,0.7
2023-03-15T11:11:25.082Z,0.5
2023-03-15T11:12:41.320Z,0.5
2023-03-15T11:13:57.559Z,0.6
2023-03-15T11:15:13.805Z,0.5
2023-03-15T11:16:30.043Z,0.5
2023-03-15T11:17:46.273Z,0.5
2023-03-15T11:19:02.524Z,0.8
2023-03-15T11:20:18.741Z,0.8
2023-03-15T11:21:35.006Z,0.6
2023-03-15T11:22:51.235Z,0.5
2023-03-15T11:24:06.488Z,0.8
2023-03-15T11:25:22.738Z,1
2023-03-15T11:26:37.994Z,0.6
2023-03-15T11:27:54.235Z,0.9
2023-03-15T11:29:10.474Z,0.9
2023-03-15T11:30:26.701Z,0.7
2023-03-15T11:31:42.961Z,0.6
2023-03-15T11:32:59.178Z,0.6
2023-03-15T11:34:15.428Z,0.6
2023-03-15T11:35:31.665Z,0.6
2023-03-15T11:36:47.917Z,0.4
2023-03-15T11:38:04.147Z,0.7
2023-03-15T11:39:20.389Z,0.6
2023-03-15T11:40:36.626Z,0.7
2023-03-15T11:41:52.851Z,0.7
2023-03-15T11:43:08.125Z,0.9
2023-03-15T11:44:24.367Z,0.6
2023-03-15T11:45:40.605Z,0.6
2023-03-15T11:46:56.835Z,0.9
2023-03-15T11:48:13.090Z,0.7
2023-03-15T11:49:29.332Z,0.6
2023-03-15T11:50:45.562Z,0.6
2023-03-15T11:52:01.804Z,0.6
2023-03-15T11:53:18.058Z,0.6
2023-03-15T11:54:34.280Z,0.6
2023-03-15T11:55:50.526Z,0.6
2023-03-15T11:57:06.775Z,0.7
2023-03-15T11:58:23.010Z,0.8
2023-03-15T11:59:38.264Z,0.7
2023-03-15T12:00:54.483Z,0.6
2023-03-15T12:02:10.743Z,0.9
2023-03-15T12:03:26.960Z,0.8
2023-03-15T12:04:43.205Z,0.6
2023-03-15T12:05:59.476Z,0.7
2023-03-15T12:07:15.697Z,0.6
2023-03-15T12:08:31.941Z,0.6
2023-03-15T12:09:48.188Z,0.7
2023-03-15T12:11:04.415Z,0.5
2023-03-15T12:12:20.668Z,0.5
2023-03-15T12:13:36.906Z,0.6
2023-03-15T12:14:53.134Z,0.7
2023-03-15T12:16:08.374Z,0.6
2023-03-15T12:17:24.652Z,0.6
2023-03-15T12:18:40.884Z,0.6
2023-03-15T12:19:57.117Z,0.5
2023-03-15T12:21:13.362Z,0.6
2023-03-15T12:22:29.599Z,0.5
2023-03-15T12:23:45.836Z,0.5
2023-03-15T12:25:02.072Z,0.7
2023-03-15T12:26:18.314Z,0.5
2023-03-15T12:27:34.536Z,0.7
2023-03-15T12:28:50.799Z,0.5
2023-03-15T12:30:07.015Z,0.5
2023-03-15T12:31:23.286Z,0.6
2023-03-15T12:32:38.536Z,0.5
2023-03-15T12:33:54.767Z,0.6
2023-03-15T12:35:11.020Z,0.6
2023-03-15T12:36:27.267Z,0.5
2023-03-15T12:37:43.497Z,0.5
2023-03-15T12:38:59.745Z,0.4
2023-03-15T12:40:15.967Z,0.5
2023-03-15T12:41:32.208Z,0.5
2023-03-15T12:42:48.450Z,0.5
2023-03-15T12:44:04.688Z,0.6
2023-03-15T12:45:20.934Z,0.5
2023-03-15T12:46:37.182Z,0.5
2023-03-15T12:47:53.411Z,0.7
2023-03-15T12:49:09.757Z,0.5
2023-03-15T12:50:26.008Z,0.5
2023-03-15T12:51:42.264Z,0.7
2023-03-15T12:52:58.507Z,0.5
2023-03-15T12:54:14.735Z,0.5
2023-03-15T12:55:30.975Z,0.5
2023-03-15T12:56:47.212Z,0.5
2023-03-15T12:58:03.466Z,0.6
2023-03-15T12:59:19.689Z,0.4
2023-03-15T13:00:35.919Z,0.4
2023-03-15T13:01:52.171Z,0.5
2023-03-15T13:03:08.416Z,0.4
2023-03-15T13:04:24.659Z,0.7
2023-03-15T13:05:39.918Z,0.8
2023-03-15T13:06:56.160Z,0.5
2023-03-15T13:08:12.394Z,0.8
2023-03-15T13:09:28.635Z,0.5
2023-03-15T13:10:44.868Z,1.2
2023-03-15T13:12:01.121Z,0.5
2023-03-15T13:13:17.351Z,0.8
2023-03-15T13:14:33.582Z,0.6
2023-03-15T13:15:49.839Z,0.5
2023-03-15T13:17:06.044Z,0.4
2023-03-15T13:18:22.306Z,0.5
2023-03-15T13:19:38.551Z,0.5
2023-03-15T13:20:54.781Z,0.5
2023-03-15T13:22:10.045Z,0.7
2023-03-15T13:23:26.282Z,0.6
2023-03-15T13:24:42.535Z,0.5
2023-03-15T13:25:58.768Z,0.8
2023-03-15T13:27:14.977Z,0.7
2023-03-15T13:28:31.242Z,0.5
2023-03-15T13:29:47.485Z,0.8
2023-03-15T13:31:03.723Z,0.5
2023-03-15T13:32:19.939Z,0.4
2023-03-15T13:33:36.176Z,0.6
2023-03-15T13:34:52.448Z,0.5
2023-03-15T13:36:08.661Z,0.5
2023-03-15T13:37:24.911Z,0.8
2023-03-15T13:38:40.149Z,0.6
2023-03-15T13:39:56.409Z,0.5
2023-03-15T13:41:12.668Z,0.5
2023-03-15T13:42:28.907Z,0.5
2023-03-15T13:43:45.127Z,0.5
2023-03-15T13:45:01.368Z,0.8
2023-03-15T13:46:17.613Z,0.6
2023-03-15T13:47:33.848Z,0.5
2023-03-15T13:48:50.090Z,0.6
2023-03-15T13:50:06.343Z,0.6
2023-03-15T13:51:22.568Z,0.5
2023-03-15T13:52:38.794Z,0.6
2023-03-15T13:53:55.059Z,0.8
2023-03-15T13:55:10.292Z,1.2
2023-03-15T13:56:26.551Z,1.1
2023-03-15T13:57:42.785Z,1.2
2023-03-15T13:58:59.024Z,2.2
2023-03-15T14:00:15.281Z,0.8
2023-03-15T14:01:31.507Z,0.7
2023-03-15T14:02:47.745Z,0.6
2023-03-15T14:04:03.967Z,0.5
2023-03-15T14:05:20.204Z,0.4
2023-03-15T14:06:36.445Z,0.6
2023-03-15T14:07:52.718Z,0.5
2023-03-15T14:09:08.960Z,0.9
2023-03-15T14:10:25.168Z,0.6
2023-03-15T14:11:40.447Z,0.5
2023-03-15T14:12:56.699Z,0.8
2023-03-15T14:14:12.926Z,0.6
2023-03-15T14:15:29.172Z,0.7
2023-03-15T14:16:45.414Z,0.9
2023-03-15T14:18:01.621Z,0.8
2023-03-15T14:19:17.889Z,0.8
2023-03-15T14:20:34.122Z,1
2023-03-15T14:21:50.362Z,0.7
2023-03-15T14:23:06.607Z,0.6
2023-03-15T14:24:22.840Z,0.6
2023-03-15T14:25:39.088Z,0.5
2023-03-15T14:26:55.323Z,0.5
2023-03-15T14:28:11.684Z,0.6
2023-03-15T14:29:27.932Z,0.7
2023-03-15T14:30:44.143Z,0.7
2023-03-15T14:32:00.415Z,0.6
2023-03-15T14:33:16.629Z,0.6
2023-03-15T14:34:32.886Z,0.9
2023-03-15T14:35:49.106Z,0.8
2023-03-15T14:37:05.343Z,0.6
2023-03-15T14:38:21.617Z,1.5
2023-03-15T14:39:37.829Z,0.6
2023-03-15T14:40:54.080Z,0.8
2023-03-15T14:42:10.303Z,0.7
2023-03-15T14:43:26.538Z,0.7
2023-03-15T14:44:41.823Z,0.6
2023-03-15T14:45:58.068Z,0.8
2023-03-15T14:47:14.302Z,0.6
2023-03-15T14:48:30.515Z,0.6
2023-03-15T14:49:46.791Z,0.7
2023-03-15T14:51:03.003Z,0.7
2023-03-15T14:52:19.266Z,0.6
2023-03-15T14:53:35.511Z,0.7
2023-03-15T14:54:51.712Z,0.5
2023-03-15T14:56:07.986Z,1
2023-03-15T14:57:24.205Z,0.7
2023-03-15T14:58:40.455Z,0.5
2023-03-15T14:59:56.691Z,0.6
2023-03-15T15:01:12.930Z,0.5
2023-03-15T15:02:29.295Z,0.5
2023-03-15T15:03:45.549Z,0.7
2023-03-15T15:05:01.753Z,0.5
2023-03-15T15:06:18.025Z,0.7
2023-03-15T15:07:34.236Z,0.6
2023-03-15T15:08:50.494Z,0.7
2023-03-15T15:10:06.715Z,0.6
2023-03-15T15:11:22.979Z,0.8
2023-03-15T15:12:39.188Z,0.6
2023-03-15T15:13:55.432Z,0.7
2023-03-15T15:15:11.691Z,0.5
2023-03-15T15:16:27.949Z,0.6
2023-03-15T15:17:44.172Z,0.7
2023-03-15T15:18:59.440Z,0.6
2023-03-15T15:20:15.680Z,0.6
2023-03-15T15:21:31.884Z,0.5
2023-03-15T15:22:48.148Z,0.6
2023-03-15T15:24:04.392Z,0.6
2023-03-15T15:25:20.627Z,0.5
2023-03-15T15:26:36.877Z,0.6
2023-03-15T15:27:53.107Z,0.5
2023-03-15T15:29:09.328Z,0.6
2023-03-15T15:30:25.591Z,0.7
2023-03-15T15:31:41.842Z,0.8
2023-03-15T15:32:58.082Z,0.6
2023-03-15T15:34:14.291Z,0.6
2023-03-15T15:35:29.553Z,0.6
2023-03-15T15:36:45.784Z,0.7
2023-03-15T15:38:02.060Z,0.6
2023-03-15T15:39:18.299Z,0.6
2023-03-15T15:40:34.529Z,0.4
2023-03-15T15:41:49.794Z,0.6
2023-03-15T15:43:06.002Z,0.5
2023-03-15T15:44:22.278Z,0.6
2023-03-15T15:45:38.513Z,0.6
2023-03-15T15:46:54.722Z,0.6
2023-03-15T15:48:10.997Z,0.5
2023-03-15T15:49:27.227Z,0.5
2023-03-15T15:50:43.473Z,0.5
2023-03-15T15:51:59.682Z,0.7
2023-03-15T15:53:15.958Z,0.6
2023-03-15T15:54:32.184Z,0.5
2023-03-15T15:55:48.430Z,0.6
2023-03-15T15:57:04.677Z,0.7
2023-03-15T15:58:19.935Z,0.8
2023-03-15T15:59:36.172Z,0.5
2023-03-15T16:00:52.399Z,0.9
2023-03-15T16:02:08.654Z,0.8
2023-03-15T16:03:24.865Z,0.7
2023-03-15T16:04:41.123Z,0.9
2023-03-15T16:05:57.335Z,0.9
2023-03-15T16:07:13.608Z,0.7
2023-03-15T16:08:29.851Z,1.1
2023-03-15T16:09:46.080Z,0.8
2023-03-15T16:11:02.326Z,0.6
2023-03-15T16:12:18.543Z,0.7
2023-03-15T16:13:34.801Z,1.4
2023-03-15T16:14:50.055Z,0.6
2023-03-15T16:16:06.306Z,0.7
2023-03-15T16:17:22.532Z,0.5
2023-03-15T16:18:38.783Z,0.9
2023-03-15T16:19:55.013Z,1
2023-03-15T16:21:11.266Z,0.6
2023-03-15T16:22:27.497Z,0.7
2023-03-15T16:23:43.740Z,1
2023-03-15T16:24:59.949Z,0.8
2023-03-15T16:26:16.217Z,0.4
2023-03-15T16:27:32.470Z,0.6
2023-03-15T16:28:48.698Z,0.5
2023-03-15T16:30:04.937Z,0.7
2023-03-15T16:31:20.190Z,0.6
2023-03-15T16:32:36.421Z,0.6
2023-03-15T16:33:52.670Z,0.7
2023-03-15T16:35:08.919Z,0.6
2023-03-15T16:36:25.133Z,0.7
2023-03-15T16:37:41.397Z,0.9
2023-03-15T16:38:57.618Z,0.8
2023-03-15T16:40:13.855Z,0.7
2023-03-15T16:41:30.122Z,0.6
2023-03-15T16:42:46.353Z,0.7
2023-03-15T16:44:02.568Z,0.9
2023-03-15T16:45:18.810Z,0.9
2023-03-15T16:46:35.068Z,0.7
2023-03-15T16:47:50.345Z,0.6
2023-03-15T16:49:06.542Z,0.9
2023-03-15T16:50:22.811Z,0.6
2023-03-15T16:51:39.045Z,0.9
2023-03-15T16:52:55.291Z,1.2
2023-03-15T16:54:11.531Z,0.7
2023-03-15T16:55:27.745Z,0.6
2023-03-15T16:56:44.007Z,1.1
2023-03-15T16:58:00.221Z,0.9
2023-03-15T16:59:16.485Z,0.7
2023-03-15T17:00:32.731Z,0.9
2023-03-15T17:01:48.967Z,0.9
2023-03-15T17:03:05.208Z,1
2023-03-15T17:04:20.440Z,0.7
2023-03-15T17:05:36.714Z,0.6
2023-03-15T17:06:52.940Z,0.6
2023-03-15T17:08:09.162Z,0.6
2023-03-15T17:09:25.431Z,0.8
2023-03-15T17:10:41.642Z,0.8
2023-03-15T17:11:57.881Z,0.7
2023-03-15T17:13:14.151Z,0.9
2023-03-15T17:14:30.361Z,0.7
2023-03-15T17:15:46.620Z,1.5
2023-03-15T17:17:02.836Z,0.7
2023-03-15T17:18:19.099Z,0.7
2023-03-15T17:20:51.590Z,0.6
2023-03-15T17:22:06.848Z,0.6
2023-03-15T17:23:23.083Z,0.7
2023-03-15T17:24:39.326Z,0.8
2023-03-15T17:25:55.556Z,0.6
2023-03-15T17:27:11.808Z,0.5
2023-03-15T17:28:28.012Z,0.9
2023-03-15T17:29:44.278Z,0.8
2023-03-15T17:31:00.000Z,1.4
2023-03-15T17:32:16.755Z,1.6
2023-03-15T17:33:32.995Z,2.7